sensor_id;sensor_type;location;lat;lon;timestamp;P1;durP1;ratioP1;P2;durP2;ratioP2
12635;SDS011;6383;50.830;7.210;2022-12-07T00:01:36;33.88;;;24.73;;
12635;SDS011;6383;50.830;7.210;2022-12-07T00:04:07;38.50;;;24.70;;
12635;SDS011;6383;50.830;7.210;2022-12-07T00:06:39;38.95;;;26.80;;
12635;SDS011;6383;50.830;7.210;2022-12-07T00:09:11;39.20;;;26.15;;
12635;SDS011;6383;50.830;7.210;2022-12-07T00:11:42;37.50;;;26.48;;
12635;SDS011;6383;50.830;7.210;2022-12-07T00:14:12;37.13;;;24.00;;
12635;SDS011;6383;50.830;7.210;2022-12-07T00:16:41;39.78;;;26.40;;
12635;SDS011;6383;50.830;7.210;2022-12-07T00:19:11;37.72;;;27.17;;
12635;SDS011;6383;50.830;7.210;2022-12-07T00:21:41;36.90;;;26.92;;
12635;SDS011;6383;50.830;7.210;2022-12-07T00:24:12;40.45;;;27.23;;
12635;SDS011;6383;50.830;7.210;2022-12-07T00:26:41;37.92;;;26.02;;
12635;SDS011;6383;50.830;7.210;2022-12-07T00:29:13;35.40;;;27.70;;
12635;SDS011;6383;50.830;7.210;2022-12-07T00:31:44;38.38;;;28.42;;
12635;SDS011;6383;50.830;7.210;2022-12-07T00:34:14;38.45;;;28.10;;
12635;SDS011;6383;50.830;7.210;2022-12-07T00:36:43;46.05;;;31.27;;
12635;SDS011;6383;50.830;7.210;2022-12-07T00:39:13;45.83;;;30.17;;
12635;SDS011;6383;50.830;7.210;2022-12-07T00:41:42;40.92;;;28.40;;
12635;SDS011;6383;50.830;7.210;2022-12-07T00:44:09;38.47;;;28.77;;
12635;SDS011;6383;50.830;7.210;2022-12-07T00:46:37;48.35;;;31.40;;
12635;SDS011;6383;50.830;7.210;2022-12-07T00:49:05;44.17;;;29.75;;
12635;SDS011;6383;50.830;7.210;2022-12-07T00:51:33;36.47;;;29.83;;
12635;SDS011;6383;50.830;7.210;2022-12-07T00:54:01;47.00;;;32.60;;
12635;SDS011;6383;50.830;7.210;2022-12-07T00:56:30;39.97;;;29.75;;
12635;SDS011;6383;50.830;7.210;2022-12-07T00:58:59;43.42;;;30.55;;
12635;SDS011;6383;50.830;7.210;2022-12-07T01:01:30;42.30;;;31.77;;
12635;SDS011;6383;50.830;7.210;2022-12-07T01:04:02;40.40;;;30.17;;
12635;SDS011;6383;50.830;7.210;2022-12-07T01:06:30;38.25;;;29.70;;
12635;SDS011;6383;50.830;7.210;2022-12-07T01:08:59;41.03;;;31.45;;
12635;SDS011;6383;50.830;7.210;2022-12-07T01:11:29;38.25;;;29.75;;
12635;SDS011;6383;50.830;7.210;2022-12-07T01:13:59;43.50;;;31.95;;
12635;SDS011;6383;50.830;7.210;2022-12-07T01:16:27;43.72;;;30.50;;
12635;SDS011;6383;50.830;7.210;2022-12-07T01:18:58;46.90;;;31.08;;
12635;SDS011;6383;50.830;7.210;2022-12-07T01:21:29;40.65;;;29.50;;
12635;SDS011;6383;50.830;7.210;2022-12-07T01:24:00;41.40;;;30.73;;
12635;SDS011;6383;50.830;7.210;2022-12-07T01:26:31;37.85;;;30.73;;
12635;SDS011;6383;50.830;7.210;2022-12-07T01:28:58;41.40;;;32.15;;
12635;SDS011;6383;50.830;7.210;2022-12-07T01:31:27;42.67;;;30.48;;
12635;SDS011;6383;50.830;7.210;2022-12-07T01:33:58;42.55;;;31.50;;
12635;SDS011;6383;50.830;7.210;2022-12-07T01:36:29;38.35;;;32.58;;
12635;SDS011;6383;50.830;7.210;2022-12-07T01:39:00;37.35;;;30.38;;
12635;SDS011;6383;50.830;7.210;2022-12-07T01:41:33;45.22;;;33.15;;
12635;SDS011;6383;50.830;7.210;2022-12-07T01:44:17;43.83;;;31.90;;
12635;SDS011;6383;50.830;7.210;2022-12-07T01:46:47;48.22;;;31.48;;
12635;SDS011;6383;50.830;7.210;2022-12-07T01:49:18;41.78;;;33.38;;
12635;SDS011;6383;50.830;7.210;2022-12-07T01:51:57;47.45;;;32.25;;
12635;SDS011;6383;50.830;7.210;2022-12-07T01:54:29;43.33;;;32.50;;
12635;SDS011;6383;50.830;7.210;2022-12-07T01:56:59;40.28;;;32.53;;
12635;SDS011;6383;50.830;7.210;2022-12-07T01:59:28;42.10;;;31.40;;
12635;SDS011;6383;50.830;7.210;2022-12-07T02:01:57;40.70;;;30.90;;
12635;SDS011;6383;50.830;7.210;2022-12-07T02:04:25;40.13;;;31.50;;
12635;SDS011;6383;50.830;7.210;2022-12-07T02:06:53;44.08;;;31.17;;
12635;SDS011;6383;50.830;7.210;2022-12-07T02:09:23;64.25;;;33.00;;
12635;SDS011;6383;50.830;7.210;2022-12-07T02:11:51;35.63;;;30.58;;
12635;SDS011;6383;50.830;7.210;2022-12-07T02:14:22;37.55;;;30.42;;
12635;SDS011;6383;50.830;7.210;2022-12-07T02:16:57;41.08;;;29.88;;
12635;SDS011;6383;50.830;7.210;2022-12-07T02:19:42;40.05;;;31.00;;
12635;SDS011;6383;50.830;7.210;2022-12-07T02:22:33;35.25;;;27.85;;
12635;SDS011;6383;50.830;7.210;2022-12-07T02:25:36;37.95;;;30.08;;
12635;SDS011;6383;50.830;7.210;2022-12-07T02:28:24;36.28;;;29.00;;
12635;SDS011;6383;50.830;7.210;2022-12-07T02:31:01;46.13;;;31.95;;
12635;SDS011;6383;50.830;7.210;2022-12-07T02:33:35;36.80;;;29.98;;
12635;SDS011;6383;50.830;7.210;2022-12-07T02:36:10;37.15;;;29.75;;
12635;SDS011;6383;50.830;7.210;2022-12-07T02:38:43;40.50;;;30.30;;
12635;SDS011;6383;50.830;7.210;2022-12-07T02:41:18;42.63;;;31.58;;
12635;SDS011;6383;50.830;7.210;2022-12-07T02:43:51;37.88;;;30.88;;
12635;SDS011;6383;50.830;7.210;2022-12-07T02:46:25;38.85;;;31.25;;
12635;SDS011;6383;50.830;7.210;2022-12-07T02:48:56;38.80;;;30.70;;
12635;SDS011;6383;50.830;7.210;2022-12-07T02:51:29;38.05;;;30.75;;
12635;SDS011;6383;50.830;7.210;2022-12-07T02:53:58;39.45;;;31.98;;
12635;SDS011;6383;50.830;7.210;2022-12-07T02:56:27;37.17;;;29.10;;
12635;SDS011;6383;50.830;7.210;2022-12-07T02:59:08;43.15;;;31.58;;
12635;SDS011;6383;50.830;7.210;2022-12-07T03:01:47;35.17;;;29.83;;
12635;SDS011;6383;50.830;7.210;2022-12-07T03:04:26;38.53;;;30.60;;
12635;SDS011;6383;50.830;7.210;2022-12-07T03:07:05;38.10;;;32.05;;
12635;SDS011;6383;50.830;7.210;2022-12-07T03:09:41;38.10;;;31.00;;
12635;SDS011;6383;50.830;7.210;2022-12-07T03:12:14;42.95;;;32.95;;
12635;SDS011;6383;50.830;7.210;2022-12-07T03:14:47;37.38;;;30.48;;
12635;SDS011;6383;50.830;7.210;2022-12-07T03:17:23;32.97;;;28.92;;
12635;SDS011;6383;50.830;7.210;2022-12-07T03:19:56;40.20;;;30.52;;
12635;SDS011;6383;50.830;7.210;2022-12-07T03:22:27;43.38;;;31.85;;
12635;SDS011;6383;50.830;7.210;2022-12-07T03:25:01;38.03;;;31.35;;
12635;SDS011;6383;50.830;7.210;2022-12-07T03:27:34;42.95;;;30.50;;
12635;SDS011;6383;50.830;7.210;2022-12-07T03:30:06;35.33;;;27.80;;
12635;SDS011;6383;50.830;7.210;2022-12-07T03:32:39;34.63;;;29.42;;
12635;SDS011;6383;50.830;7.210;2022-12-07T03:35:12;40.63;;;30.70;;
12635;SDS011;6383;50.830;7.210;2022-12-07T03:37:47;43.38;;;29.98;;
12635;SDS011;6383;50.830;7.210;2022-12-07T03:40:21;38.60;;;29.77;;
12635;SDS011;6383;50.830;7.210;2022-12-07T03:42:52;38.92;;;28.98;;
12635;SDS011;6383;50.830;7.210;2022-12-07T03:45:24;33.80;;;29.02;;
12635;SDS011;6383;50.830;7.210;2022-12-07T03:48:02;38.78;;;30.55;;
12635;SDS011;6383;50.830;7.210;2022-12-07T03:50:37;45.03;;;32.42;;
12635;SDS011;6383;50.830;7.210;2022-12-07T03:53:11;42.42;;;31.25;;
12635;SDS011;6383;50.830;7.210;2022-12-07T03:55:45;39.08;;;29.25;;
12635;SDS011;6383;50.830;7.210;2022-12-07T03:58:15;37.53;;;31.75;;
12635;SDS011;6383;50.830;7.210;2022-12-07T04:00:48;46.35;;;33.38;;
12635;SDS011;6383;50.830;7.210;2022-12-07T04:03:19;42.65;;;30.67;;
12635;SDS011;6383;50.830;7.210;2022-12-07T04:05:48;37.40;;;30.25;;
12635;SDS011;6383;50.830;7.210;2022-12-07T04:08:16;40.78;;;31.77;;
12635;SDS011;6383;50.830;7.210;2022-12-07T04:10:44;37.88;;;30.48;;
12635;SDS011;6383;50.830;7.210;2022-12-07T04:13:14;45.13;;;31.25;;
12635;SDS011;6383;50.830;7.210;2022-12-07T04:15:41;47.17;;;33.17;;
12635;SDS011;6383;50.830;7.210;2022-12-07T04:18:09;43.83;;;31.65;;
12635;SDS011;6383;50.830;7.210;2022-12-07T04:20:39;36.83;;;31.10;;
12635;SDS011;6383;50.830;7.210;2022-12-07T04:23:08;39.60;;;28.35;;
12635;SDS011;6383;50.830;7.210;2022-12-07T04:25:36;40.47;;;32.03;;
12635;SDS011;6383;50.830;7.210;2022-12-07T04:28:05;43.75;;;31.95;;
12635;SDS011;6383;50.830;7.210;2022-12-07T04:30:35;38.08;;;32.30;;
12635;SDS011;6383;50.830;7.210;2022-12-07T04:33:04;38.08;;;31.35;;
12635;SDS011;6383;50.830;7.210;2022-12-07T04:35:31;41.88;;;31.92;;
12635;SDS011;6383;50.830;7.210;2022-12-07T04:38:01;43.25;;;33.10;;
12635;SDS011;6383;50.830;7.210;2022-12-07T04:40:29;51.33;;;33.80;;
12635;SDS011;6383;50.830;7.210;2022-12-07T04:42:57;42.28;;;32.05;;
12635;SDS011;6383;50.830;7.210;2022-12-07T04:45:26;41.53;;;30.98;;
12635;SDS011;6383;50.830;7.210;2022-12-07T04:47:55;39.25;;;30.33;;
12635;SDS011;6383;50.830;7.210;2022-12-07T04:50:23;47.00;;;30.17;;
12635;SDS011;6383;50.830;7.210;2022-12-07T04:52:52;40.30;;;31.70;;
12635;SDS011;6383;50.830;7.210;2022-12-07T04:55:22;43.20;;;32.05;;
12635;SDS011;6383;50.830;7.210;2022-12-07T04:57:51;37.90;;;29.30;;
12635;SDS011;6383;50.830;7.210;2022-12-07T05:00:20;43.92;;;30.48;;
12635;SDS011;6383;50.830;7.210;2022-12-07T05:02:49;44.95;;;28.90;;
12635;SDS011;6383;50.830;7.210;2022-12-07T05:05:17;40.65;;;30.08;;
12635;SDS011;6383;50.830;7.210;2022-12-07T05:07:45;50.42;;;31.45;;
12635;SDS011;6383;50.830;7.210;2022-12-07T05:10:13;38.28;;;29.73;;
12635;SDS011;6383;50.830;7.210;2022-12-07T05:12:43;42.10;;;29.48;;
12635;SDS011;6383;50.830;7.210;2022-12-07T05:15:13;39.28;;;29.73;;
12635;SDS011;6383;50.830;7.210;2022-12-07T05:17:42;41.03;;;30.50;;
12635;SDS011;6383;50.830;7.210;2022-12-07T05:20:11;39.08;;;30.95;;
12635;SDS011;6383;50.830;7.210;2022-12-07T05:22:39;41.15;;;30.98;;
12635;SDS011;6383;50.830;7.210;2022-12-07T05:25:08;43.25;;;29.23;;
12635;SDS011;6383;50.830;7.210;2022-12-07T05:27:36;36.60;;;29.77;;
12635;SDS011;6383;50.830;7.210;2022-12-07T05:30:08;37.47;;;29.70;;
12635;SDS011;6383;50.830;7.210;2022-12-07T05:32:37;44.80;;;32.22;;
12635;SDS011;6383;50.830;7.210;2022-12-07T05:35:07;49.47;;;32.13;;
12635;SDS011;6383;50.830;7.210;2022-12-07T05:37:36;40.83;;;30.77;;
12635;SDS011;6383;50.830;7.210;2022-12-07T05:40:05;43.88;;;30.17;;
12635;SDS011;6383;50.830;7.210;2022-12-07T05:42:35;44.88;;;32.22;;
12635;SDS011;6383;50.830;7.210;2022-12-07T05:45:04;39.70;;;30.25;;
12635;SDS011;6383;50.830;7.210;2022-12-07T05:47:35;39.40;;;30.63;;
12635;SDS011;6383;50.830;7.210;2022-12-07T05:50:04;40.65;;;29.83;;
12635;SDS011;6383;50.830;7.210;2022-12-07T05:52:33;47.10;;;31.75;;
12635;SDS011;6383;50.830;7.210;2022-12-07T05:55:02;44.05;;;30.85;;
12635;SDS011;6383;50.830;7.210;2022-12-07T05:57:31;46.35;;;30.88;;
12635;SDS011;6383;50.830;7.210;2022-12-07T05:59:59;44.65;;;31.10;;
12635;SDS011;6383;50.830;7.210;2022-12-07T06:02:25;49.00;;;30.25;;
12635;SDS011;6383;50.830;7.210;2022-12-07T06:04:56;39.75;;;31.42;;
12635;SDS011;6383;50.830;7.210;2022-12-07T06:07:24;45.47;;;32.00;;
12635;SDS011;6383;50.830;7.210;2022-12-07T06:09:53;43.65;;;34.50;;
12635;SDS011;6383;50.830;7.210;2022-12-07T06:12:20;46.08;;;36.25;;
12635;SDS011;6383;50.830;7.210;2022-12-07T06:15:10;52.78;;;36.28;;
12635;SDS011;6383;50.830;7.210;2022-12-07T06:17:39;50.22;;;33.72;;
12635;SDS011;6383;50.830;7.210;2022-12-07T06:20:09;44.47;;;32.88;;
12635;SDS011;6383;50.830;7.210;2022-12-07T06:22:39;45.42;;;32.42;;
12635;SDS011;6383;50.830;7.210;2022-12-07T06:25:07;95.15;;;85.43;;
12635;SDS011;6383;50.830;7.210;2022-12-07T06:27:36;58.30;;;51.78;;
12635;SDS011;6383;50.830;7.210;2022-12-07T06:30:05;43.00;;;35.90;;
12635;SDS011;6383;50.830;7.210;2022-12-07T06:32:36;38.72;;;28.42;;
12635;SDS011;6383;50.830;7.210;2022-12-07T06:35:06;38.00;;;28.55;;
12635;SDS011;6383;50.830;7.210;2022-12-07T06:37:35;35.38;;;28.10;;
12635;SDS011;6383;50.830;7.210;2022-12-07T06:40:04;34.17;;;26.98;;
12635;SDS011;6383;50.830;7.210;2022-12-07T06:42:34;41.95;;;31.52;;
12635;SDS011;6383;50.830;7.210;2022-12-07T06:45:02;46.13;;;31.83;;
12635;SDS011;6383;50.830;7.210;2022-12-07T06:47:31;38.65;;;30.38;;
12635;SDS011;6383;50.830;7.210;2022-12-07T06:49:58;33.10;;;26.35;;
12635;SDS011;6383;50.830;7.210;2022-12-07T06:52:27;40.25;;;29.83;;
12635;SDS011;6383;50.830;7.210;2022-12-07T06:54:56;42.40;;;31.08;;
12635;SDS011;6383;50.830;7.210;2022-12-07T06:57:24;44.00;;;29.58;;
12635;SDS011;6383;50.830;7.210;2022-12-07T06:59:53;39.40;;;28.58;;
12635;SDS011;6383;50.830;7.210;2022-12-07T07:02:21;36.42;;;28.00;;
12635;SDS011;6383;50.830;7.210;2022-12-07T07:04:50;38.83;;;27.55;;
12635;SDS011;6383;50.830;7.210;2022-12-07T07:07:19;46.03;;;28.10;;
12635;SDS011;6383;50.830;7.210;2022-12-07T07:09:47;37.78;;;28.83;;
12635;SDS011;6383;50.830;7.210;2022-12-07T07:12:17;42.00;;;26.27;;
12635;SDS011;6383;50.830;7.210;2022-12-07T07:14:45;47.40;;;39.60;;
12635;SDS011;6383;50.830;7.210;2022-12-07T07:17:14;36.25;;;28.15;;
12635;SDS011;6383;50.830;7.210;2022-12-07T07:19:43;38.22;;;31.00;;
12635;SDS011;6383;50.830;7.210;2022-12-07T07:22:11;43.53;;;28.70;;
12635;SDS011;6383;50.830;7.210;2022-12-07T07:24:40;42.10;;;29.02;;
12635;SDS011;6383;50.830;7.210;2022-12-07T07:27:09;39.40;;;29.60;;
12635;SDS011;6383;50.830;7.210;2022-12-07T07:29:39;42.50;;;30.00;;
12635;SDS011;6383;50.830;7.210;2022-12-07T07:32:08;42.20;;;30.10;;
12635;SDS011;6383;50.830;7.210;2022-12-07T07:34:38;35.55;;;28.95;;
12635;SDS011;6383;50.830;7.210;2022-12-07T07:37:06;43.83;;;29.13;;
12635;SDS011;6383;50.830;7.210;2022-12-07T07:39:38;38.80;;;29.02;;
12635;SDS011;6383;50.830;7.210;2022-12-07T07:42:06;38.38;;;27.55;;
12635;SDS011;6383;50.830;7.210;2022-12-07T07:44:33;38.83;;;30.33;;
12635;SDS011;6383;50.830;7.210;2022-12-07T07:47:04;37.90;;;30.50;;
12635;SDS011;6383;50.830;7.210;2022-12-07T07:49:32;41.95;;;30.17;;
12635;SDS011;6383;50.830;7.210;2022-12-07T07:52:01;36.83;;;28.20;;
12635;SDS011;6383;50.830;7.210;2022-12-07T07:54:31;36.03;;;27.73;;
12635;SDS011;6383;50.830;7.210;2022-12-07T07:56:59;33.85;;;26.95;;
12635;SDS011;6383;50.830;7.210;2022-12-07T07:59:28;34.40;;;26.38;;
12635;SDS011;6383;50.830;7.210;2022-12-07T08:01:57;39.10;;;27.23;;
12635;SDS011;6383;50.830;7.210;2022-12-07T08:04:27;38.53;;;26.67;;
12635;SDS011;6383;50.830;7.210;2022-12-07T08:06:54;38.50;;;28.13;;
12635;SDS011;6383;50.830;7.210;2022-12-07T08:09:25;40.88;;;30.15;;
12635;SDS011;6383;50.830;7.210;2022-12-07T08:11:54;39.80;;;28.95;;
12635;SDS011;6383;50.830;7.210;2022-12-07T08:14:23;43.47;;;28.33;;
12635;SDS011;6383;50.830;7.210;2022-12-07T08:16:54;38.75;;;28.52;;
12635;SDS011;6383;50.830;7.210;2022-12-07T08:19:22;39.65;;;27.40;;
12635;SDS011;6383;50.830;7.210;2022-12-07T08:21:52;38.92;;;27.58;;
12635;SDS011;6383;50.830;7.210;2022-12-07T08:24:21;42.85;;;30.77;;
12635;SDS011;6383;50.830;7.210;2022-12-07T08:26:50;41.20;;;27.98;;
12635;SDS011;6383;50.830;7.210;2022-12-07T08:29:20;34.03;;;27.80;;
12635;SDS011;6383;50.830;7.210;2022-12-07T08:31:48;38.92;;;29.48;;
12635;SDS011;6383;50.830;7.210;2022-12-07T08:34:18;45.22;;;29.95;;
12635;SDS011;6383;50.830;7.210;2022-12-07T08:36:46;44.72;;;29.10;;
12635;SDS011;6383;50.830;7.210;2022-12-07T08:39:17;43.58;;;30.08;;
12635;SDS011;6383;50.830;7.210;2022-12-07T08:41:45;36.78;;;28.90;;
12635;SDS011;6383;50.830;7.210;2022-12-07T08:44:14;38.38;;;28.65;;
12635;SDS011;6383;50.830;7.210;2022-12-07T08:46:42;40.00;;;30.10;;
12635;SDS011;6383;50.830;7.210;2022-12-07T08:49:15;39.20;;;29.92;;
12635;SDS011;6383;50.830;7.210;2022-12-07T08:51:45;37.80;;;27.45;;
12635;SDS011;6383;50.830;7.210;2022-12-07T08:54:15;40.10;;;30.42;;
12635;SDS011;6383;50.830;7.210;2022-12-07T08:56:46;42.50;;;29.55;;
12635;SDS011;6383;50.830;7.210;2022-12-07T08:59:16;36.28;;;29.95;;
12635;SDS011;6383;50.830;7.210;2022-12-07T09:01:49;45.35;;;30.77;;
12635;SDS011;6383;50.830;7.210;2022-12-07T09:04:17;46.95;;;32.53;;
12635;SDS011;6383;50.830;7.210;2022-12-07T09:06:45;43.47;;;33.65;;
12635;SDS011;6383;50.830;7.210;2022-12-07T09:09:13;41.75;;;30.33;;
12635;SDS011;6383;50.830;7.210;2022-12-07T09:11:43;43.40;;;31.33;;
12635;SDS011;6383;50.830;7.210;2022-12-07T09:14:12;45.75;;;33.13;;
12635;SDS011;6383;50.830;7.210;2022-12-07T09:16:41;47.85;;;31.77;;
12635;SDS011;6383;50.830;7.210;2022-12-07T09:19:10;48.42;;;31.67;;
12635;SDS011;6383;50.830;7.210;2022-12-07T09:21:39;37.35;;;29.85;;
12635;SDS011;6383;50.830;7.210;2022-12-07T09:24:08;42.83;;;30.33;;
12635;SDS011;6383;50.830;7.210;2022-12-07T09:26:37;47.15;;;31.40;;
12635;SDS011;6383;50.830;7.210;2022-12-07T09:29:09;46.55;;;31.38;;
12635;SDS011;6383;50.830;7.210;2022-12-07T09:31:38;39.10;;;30.42;;
12635;SDS011;6383;50.830;7.210;2022-12-07T09:34:07;42.70;;;30.65;;
12635;SDS011;6383;50.830;7.210;2022-12-07T09:36:34;44.00;;;29.88;;
12635;SDS011;6383;50.830;7.210;2022-12-07T09:39:02;47.85;;;32.28;;
12635;SDS011;6383;50.830;7.210;2022-12-07T09:41:32;38.47;;;29.75;;
12635;SDS011;6383;50.830;7.210;2022-12-07T09:44:03;40.85;;;29.63;;
12635;SDS011;6383;50.830;7.210;2022-12-07T09:46:35;37.95;;;28.20;;
12635;SDS011;6383;50.830;7.210;2022-12-07T09:49:09;35.63;;;26.55;;
12635;SDS011;6383;50.830;7.210;2022-12-07T09:51:45;37.20;;;26.30;;
12635;SDS011;6383;50.830;7.210;2022-12-07T09:54:16;39.67;;;26.60;;
12635;SDS011;6383;50.830;7.210;2022-12-07T09:56:44;38.75;;;24.40;;
12635;SDS011;6383;50.830;7.210;2022-12-07T09:59:13;38.92;;;23.98;;
12635;SDS011;6383;50.830;7.210;2022-12-07T10:01:49;31.08;;;22.77;;
12635;SDS011;6383;50.830;7.210;2022-12-07T10:04:19;34.67;;;22.52;;
12635;SDS011;6383;50.830;7.210;2022-12-07T10:06:50;33.05;;;21.63;;
12635;SDS011;6383;50.830;7.210;2022-12-07T10:09:19;37.65;;;22.23;;
12635;SDS011;6383;50.830;7.210;2022-12-07T10:11:58;30.35;;;18.92;;
12635;SDS011;6383;50.830;7.210;2022-12-07T10:14:28;27.38;;;19.83;;
12635;SDS011;6383;50.830;7.210;2022-12-07T10:16:59;23.45;;;18.83;;
12635;SDS011;6383;50.830;7.210;2022-12-07T10:19:28;25.27;;;19.80;;
12635;SDS011;6383;50.830;7.210;2022-12-07T10:22:06;29.20;;;20.48;;
12635;SDS011;6383;50.830;7.210;2022-12-07T10:24:39;31.27;;;19.75;;
12635;SDS011;6383;50.830;7.210;2022-12-07T10:27:16;30.70;;;20.08;;
12635;SDS011;6383;50.830;7.210;2022-12-07T10:29:48;27.08;;;18.35;;
12635;SDS011;6383;50.830;7.210;2022-12-07T10:32:31;26.48;;;18.08;;
12635;SDS011;6383;50.830;7.210;2022-12-07T10:35:18;28.83;;;20.05;;
12635;SDS011;6383;50.830;7.210;2022-12-07T10:37:50;36.10;;;25.23;;
12635;SDS011;6383;50.830;7.210;2022-12-07T10:40:25;32.63;;;21.08;;
12635;SDS011;6383;50.830;7.210;2022-12-07T10:43:03;27.70;;;21.25;;
12635;SDS011;6383;50.830;7.210;2022-12-07T10:45:35;30.38;;;19.77;;
12635;SDS011;6383;50.830;7.210;2022-12-07T10:48:15;31.75;;;20.55;;
12635;SDS011;6383;50.830;7.210;2022-12-07T10:50:53;21.58;;;17.38;;
12635;SDS011;6383;50.830;7.210;2022-12-07T10:53:36;27.25;;;16.75;;
12635;SDS011;6383;50.830;7.210;2022-12-07T10:56:23;26.10;;;16.33;;
12635;SDS011;6383;50.830;7.210;2022-12-07T10:59:09;26.30;;;17.85;;
12635;SDS011;6383;50.830;7.210;2022-12-07T11:01:57;24.92;;;16.50;;
12635;SDS011;6383;50.830;7.210;2022-12-07T11:04:38;26.77;;;15.18;;
12635;SDS011;6383;50.830;7.210;2022-12-07T11:07:21;24.35;;;16.35;;
12635;SDS011;6383;50.830;7.210;2022-12-07T11:10:02;29.80;;;18.33;;
12635;SDS011;6383;50.830;7.210;2022-12-07T11:12:39;25.83;;;16.85;;
12635;SDS011;6383;50.830;7.210;2022-12-07T11:15:18;29.38;;;16.90;;
12635;SDS011;6383;50.830;7.210;2022-12-07T11:17:53;21.00;;;13.50;;
12635;SDS011;6383;50.830;7.210;2022-12-07T11:20:33;34.15;;;20.15;;
12635;SDS011;6383;50.830;7.210;2022-12-07T11:23:12;30.40;;;16.17;;
12635;SDS011;6383;50.830;7.210;2022-12-07T11:25:47;27.60;;;18.38;;
12635;SDS011;6383;50.830;7.210;2022-12-07T11:30:57;20.00;;;12.65;;
12635;SDS011;6383;50.830;7.210;2022-12-07T11:33:38;20.20;;;12.68;;
12635;SDS011;6383;50.830;7.210;2022-12-07T11:36:19;16.02;;;12.10;;
12635;SDS011;6383;50.830;7.210;2022-12-07T11:39:00;18.60;;;10.93;;
12635;SDS011;6383;50.830;7.210;2022-12-07T11:41:33;22.42;;;11.95;;
12635;SDS011;6383;50.830;7.210;2022-12-07T11:44:05;14.80;;;9.77;;
12635;SDS011;6383;50.830;7.210;2022-12-07T11:46:43;18.00;;;9.93;;
12635;SDS011;6383;50.830;7.210;2022-12-07T11:49:18;20.75;;;11.98;;
12635;SDS011;6383;50.830;7.210;2022-12-07T11:51:54;20.45;;;10.02;;
12635;SDS011;6383;50.830;7.210;2022-12-07T11:54:32;17.42;;;9.65;;
12635;SDS011;6383;50.830;7.210;2022-12-07T11:57:08;17.10;;;10.38;;
12635;SDS011;6383;50.830;7.210;2022-12-07T11:59:43;15.95;;;9.38;;
12635;SDS011;6383;50.830;7.210;2022-12-07T12:02:19;19.13;;;10.40;;
12635;SDS011;6383;50.830;7.210;2022-12-07T12:04:52;14.38;;;8.65;;
12635;SDS011;6383;50.830;7.210;2022-12-07T12:07:27;16.30;;;9.20;;
12635;SDS011;6383;50.830;7.210;2022-12-07T12:09:58;25.88;;;8.88;;
12635;SDS011;6383;50.830;7.210;2022-12-07T12:12:45;15.25;;;8.00;;
12635;SDS011;6383;50.830;7.210;2022-12-07T12:15:29;14.82;;;8.63;;
12635;SDS011;6383;50.830;7.210;2022-12-07T12:18:19;13.07;;;8.93;;
12635;SDS011;6383;50.830;7.210;2022-12-07T12:21:09;19.88;;;8.13;;
12635;SDS011;6383;50.830;7.210;2022-12-07T12:23:42;17.42;;;10.27;;
12635;SDS011;6383;50.830;7.210;2022-12-07T12:26:15;13.65;;;8.07;;
12635;SDS011;6383;50.830;7.210;2022-12-07T12:28:51;18.67;;;8.65;;
12635;SDS011;6383;50.830;7.210;2022-12-07T12:31:34;17.65;;;8.05;;
12635;SDS011;6383;50.830;7.210;2022-12-07T12:36:59;20.42;;;9.95;;
12635;SDS011;6383;50.830;7.210;2022-12-07T12:39:30;16.55;;;9.68;;
12635;SDS011;6383;50.830;7.210;2022-12-07T12:41:59;21.88;;;9.35;;
12635;SDS011;6383;50.830;7.210;2022-12-07T12:47:39;13.15;;;8.10;;
12635;SDS011;6383;50.830;7.210;2022-12-07T12:50:31;16.48;;;7.78;;
12635;SDS011;6383;50.830;7.210;2022-12-07T12:56:10;21.63;;;9.10;;
12635;SDS011;6383;50.830;7.210;2022-12-07T12:58:51;16.70;;;7.90;;
12635;SDS011;6383;50.830;7.210;2022-12-07T13:01:49;17.45;;;6.70;;
12635;SDS011;6383;50.830;7.210;2022-12-07T13:13:35;12.15;;;6.00;;
12635;SDS011;6383;50.830;7.210;2022-12-07T13:22:40;17.42;;;7.88;;
12635;SDS011;6383;50.830;7.210;2022-12-07T13:25:12;18.75;;;9.40;;
12635;SDS011;6383;50.830;7.210;2022-12-07T13:27:47;23.30;;;13.82;;
12635;SDS011;6383;50.830;7.210;2022-12-07T13:30:21;13.70;;;10.40;;
12635;SDS011;6383;50.830;7.210;2022-12-07T13:32:51;18.08;;;8.30;;
12635;SDS011;6383;50.830;7.210;2022-12-07T13:35:33;31.15;;;19.25;;
12635;SDS011;6383;50.830;7.210;2022-12-07T13:38:05;22.45;;;9.30;;
12635;SDS011;6383;50.830;7.210;2022-12-07T13:40:43;14.32;;;8.73;;
12635;SDS011;6383;50.830;7.210;2022-12-07T13:43:27;17.67;;;8.57;;
12635;SDS011;6383;50.830;7.210;2022-12-07T13:45:59;21.20;;;10.15;;
12635;SDS011;6383;50.830;7.210;2022-12-07T13:48:30;20.05;;;9.63;;
12635;SDS011;6383;50.830;7.210;2022-12-07T13:51:01;17.73;;;10.07;;
12635;SDS011;6383;50.830;7.210;2022-12-07T13:53:33;16.77;;;9.98;;
12635;SDS011;6383;50.830;7.210;2022-12-07T13:56:01;13.82;;;8.85;;
12635;SDS011;6383;50.830;7.210;2022-12-07T13:58:31;18.67;;;9.30;;
12635;SDS011;6383;50.830;7.210;2022-12-07T14:01:02;23.38;;;14.27;;
12635;SDS011;6383;50.830;7.210;2022-12-07T14:03:32;29.67;;;20.17;;
12635;SDS011;6383;50.830;7.210;2022-12-07T14:06:04;25.80;;;15.77;;
12635;SDS011;6383;50.830;7.210;2022-12-07T14:08:33;15.77;;;10.15;;
12635;SDS011;6383;50.830;7.210;2022-12-07T14:11:01;40.63;;;34.22;;
12635;SDS011;6383;50.830;7.210;2022-12-07T14:13:30;17.38;;;12.02;;
12635;SDS011;6383;50.830;7.210;2022-12-07T14:16:00;19.10;;;9.85;;
12635;SDS011;6383;50.830;7.210;2022-12-07T14:18:36;18.40;;;9.93;;
12635;SDS011;6383;50.830;7.210;2022-12-07T14:21:05;15.90;;;9.57;;
12635;SDS011;6383;50.830;7.210;2022-12-07T14:23:35;16.05;;;9.40;;
12635;SDS011;6383;50.830;7.210;2022-12-07T14:26:06;13.93;;;8.63;;
12635;SDS011;6383;50.830;7.210;2022-12-07T14:28:39;16.52;;;9.68;;
12635;SDS011;6383;50.830;7.210;2022-12-07T14:31:12;14.70;;;8.30;;
12635;SDS011;6383;50.830;7.210;2022-12-07T14:33:40;18.80;;;9.93;;
12635;SDS011;6383;50.830;7.210;2022-12-07T14:36:08;19.05;;;10.77;;
12635;SDS011;6383;50.830;7.210;2022-12-07T14:38:39;20.58;;;11.25;;
12635;SDS011;6383;50.830;7.210;2022-12-07T14:41:12;16.25;;;10.98;;
12635;SDS011;6383;50.830;7.210;2022-12-07T14:44:00;18.95;;;10.35;;
12635;SDS011;6383;50.830;7.210;2022-12-07T14:46:30;19.35;;;10.38;;
12635;SDS011;6383;50.830;7.210;2022-12-07T14:48:58;19.23;;;11.75;;
12635;SDS011;6383;50.830;7.210;2022-12-07T14:51:26;18.40;;;10.48;;
12635;SDS011;6383;50.830;7.210;2022-12-07T14:53:55;12.05;;;10.77;;
12635;SDS011;6383;50.830;7.210;2022-12-07T14:56:24;14.48;;;9.40;;
12635;SDS011;6383;50.830;7.210;2022-12-07T14:58:53;18.70;;;9.63;;
12635;SDS011;6383;50.830;7.210;2022-12-07T15:01:20;20.92;;;10.05;;
12635;SDS011;6383;50.830;7.210;2022-12-07T15:03:49;18.52;;;10.77;;
12635;SDS011;6383;50.830;7.210;2022-12-07T15:06:17;24.80;;;11.55;;
12635;SDS011;6383;50.830;7.210;2022-12-07T15:08:45;23.00;;;11.40;;
12635;SDS011;6383;50.830;7.210;2022-12-07T15:11:13;22.27;;;11.60;;
12635;SDS011;6383;50.830;7.210;2022-12-07T15:13:41;18.92;;;11.05;;
12635;SDS011;6383;50.830;7.210;2022-12-07T15:16:27;17.50;;;10.95;;
12635;SDS011;6383;50.830;7.210;2022-12-07T15:18:58;16.15;;;10.20;;
12635;SDS011;6383;50.830;7.210;2022-12-07T15:21:27;17.40;;;10.48;;
12635;SDS011;6383;50.830;7.210;2022-12-07T15:23:55;30.13;;;16.63;;
12635;SDS011;6383;50.830;7.210;2022-12-07T15:26:23;23.45;;;15.32;;
12635;SDS011;6383;50.830;7.210;2022-12-07T15:28:52;19.42;;;10.43;;
12635;SDS011;6383;50.830;7.210;2022-12-07T15:31:21;16.80;;;10.65;;